Time;durP1;ratioP1;P1;durP2;ratioP2;P2;SDS_P1;SDS_P2;PMS_P1;PMS_P2;Temp;Humidity;BMP_temperature;BMP_pressure;BME280_temperature;BME280_humidity;BME280_pressure;Samples;Min_cycle;Max_cycle;Signal;HPM_P1;HPM_P2
2021/07/13 05:02:06;;;;;;;;;;;;;;;27.16;56.54;100267.60;1834126;77;20238;-64
2021/07/13 05:04:33;;;;;;;;;;;;;;;27.07;56.78;100274.06;1783511;78;20407;-67
2021/07/13 05:07:00;;;;;;;;;;;;;;;26.98;57.00;100275.69;1797456;78;21064;-65
2021/07/13 05:09:27;;;;;;;;;;;;;;;26.97;57.50;100272.69;1788408;78;20115;-65
2021/07/13 05:11:54;;;;;;;;;;;;;;;26.98;57.58;100271.67;1788761;78;20419;-65
2021/07/13 05:14:21;;;;;;;;;;;;;;;27.03;57.18;100272.78;1793236;78;20114;-63
2021/07/13 05:16:48;;;;;;;;;;;;;;;26.93;57.42;100272.20;1789302;78;20162;-65
2021/07/13 05:19:17;;;;;;;;;;;;;;;26.95;57.18;100272.84;1780266;78;20467;-66
2021/07/13 05:21:50;;;;;;;;;;;;;;;27.05;57.28;100275.27;1792690;80;20452;-62
2021/07/13 05:24:15;;;;;;;;;;;;;;;27.47;56.35;100280.70;1795090;79;20391;-64
2021/07/13 05:26:42;;;;;;;;;;;;;;;27.89;55.14;100291.95;1782129;80;20103;-64
2021/07/13 05:29:09;;;;;;;;;;;;;;;28.47;53.68;100285.09;1788368;78;20147;-67
2021/07/13 05:31:36;;;;;;;;;;;;;;;29.03;51.59;100277.81;1795583;78;21987;-66
2021/07/13 05:34:02;;;;;;;;;;;;;;;29.56;50.03;100293.28;1795658;80;20176;-66
2021/07/13 05:36:29;;;;;;;;;;;;;;;29.97;48.17;100292.61;1792944;80;20154;-67
2021/07/13 05:38:56;;;;;;;;;;;;;;;30.32;46.92;100281.16;1795420;78;20471;-66
2021/07/13 05:41:23;;;;;;;;;;;;;;;30.69;45.55;100281.01;1801648;78;20075;-69
2021/07/13 05:43:50;;;;;;;;;;;;;;;30.97;45.01;100279.88;1815883;78;21132;-67
2021/07/13 05:46:17;;;;;;;;;;;;;;;31.36;43.98;100290.48;1806067;78;20118;-68
2021/07/13 05:48:44;;;;;;;;;;;;;;;31.55;43.75;100277.95;1792455;78;20525;-69
2021/07/13 05:51:13;;;;;;;;;;;;;;;31.68;43.66;100285.95;1789360;78;20116;-70
2021/07/13 05:53:40;;;;;;;;;;;;;;;31.95;43.21;100284.43;1797605;79;20082;-69
2021/07/13 05:56:07;;;;;;;;;;;;;;;32.23;42.24;100278.62;1795071;78;21090;-69
2021/07/13 05:58:35;;;;;;;;;;;;;;;32.45;41.55;100278.48;1791354;78;20157;-68
2021/07/13 06:01:02;;;;;;;;;;;;;;;32.70;41.30;100279.80;1803145;78;20090;-69
2021/07/13 06:03:30;;;;;;;;;;;;;;;33.00;41.23;100281.22;1783991;80;20412;-67
2021/07/13 06:05:58;;;;;;;5.65;5.15;;;;;;;33.20;41.17;100276.91;1780475;80;20122;-68
2021/07/13 06:08:25;;;;;;;5.90;5.40;;;;;;;33.47;40.62;100282.28;1779377;79;21629;-68
2021/07/13 06:10:54;;;;;;;6.53;5.17;;;;;;;33.69;40.04;100276.64;1791920;79;20940;-72
2021/07/13 06:13:22;;;;;;;4.60;4.20;;;;;;;33.95;38.92;100274.09;1769020;80;20974;-68
2021/07/13 06:15:49;;;;;;;6.85;4.35;;;;;;;34.22;38.15;100279.03;1791006;79;20961;-70
2021/07/13 06:18:19;;;;;;;5.45;4.55;;;;;;;34.41;37.13;100271.92;1745724;81;21042;-70
2021/07/13 06:20:46;;;;;;;5.70;4.65;;;;;;;34.52;37.31;100280.27;1748683;81;21407;-67
2021/07/13 06:23:14;;;;;;;7.58;4.50;;;;;;;34.53;37.08;100275.16;1744949;81;20989;-65
2021/07/13 06:25:42;;;;;;;4.97;4.45;;;;;;;34.47;37.49;100277.45;1750033;80;20903;-65
2021/07/13 06:28:10;;;;;;;5.72;4.28;;;;;;;34.41;37.73;100272.45;1753101;81;20968;-66
2021/07/13 06:30:37;;;;;;;6.97;4.20;;;;;;;34.39;37.11;100276.75;1763730;80;20961;-67
2021/07/13 06:33:05;;;;;;;7.42;4.35;;;;;;;34.39;37.42;100271.90;1786092;78;21144;-65
2021/07/13 06:35:34;;;;;;;4.62;4.22;;;;;;;34.47;37.17;100274.22;1793762;79;20931;-65
2021/07/13 06:38:02;;;;;;;4.60;4.30;;;;;;;34.56;36.81;100276.86;1781684;79;20881;-67
2021/07/13 06:40:31;;;;;;;6.80;4.87;;;;;;;34.69;36.90;100271.73;1781812;79;21419;-65
2021/07/13 06:42:59;;;;;;;7.03;4.90;;;;;;;34.83;36.96;100270.41;1758014;80;20993;-65
2021/07/13 06:45:27;;;;;;;6.35;4.28;;;;;;;34.87;36.99;100256.70;1782599;78;21093;-69
2021/07/13 06:47:55;;;;;;;4.78;4.17;;;;;;;35.04;36.25;100262.19;1760755;79;21604;-68
2021/07/13 06:50:24;;;;;;;5.80;4.17;;;;;;;35.12;36.25;100259.63;1769121;78;20998;-68
2021/07/13 06:52:52;;;;;;;5.33;4.17;;;;;;;35.15;36.10;100263.22;1774939;79;20864;-66
2021/07/13 06:55:21;;;;;;;7.42;4.90;;;;;;;35.21;36.08;100255.45;1780726;79;21129;-68
2021/07/13 06:57:49;;;;;;;5.55;4.42;;;;;;;35.23;36.36;100258.20;1770021;79;21315;-65
2021/07/13 07:00:16;;;;;;;5.75;4.58;;;;;;;35.20;36.51;100262.75;1772794;78;21549;-71
2021/07/13 07:02:45;;;;;;;4.40;3.95;;;;;;;35.31;36.66;100262.45;1779440;78;20931;-68
2021/07/13 07:05:14;;;;;;;6.50;4.45;;;;;;;35.42;36.35;100259.69;1790996;79;21572;-65
2021/07/13 07:07:49;;;;;;;4.55;4.10;;;;;;;35.57;36.59;100259.15;1784909;78;21012;-67
2021/07/13 07:10:17;;;;;;;7.75;4.37;;;;;;;35.71;36.27;100264.52;1797124;78;21175;-65
2021/07/13 07:12:44;;;;;;;6.92;4.33;;;;;;;35.90;36.37;100264.32;1791662;79;21446;-66
2021/07/13 07:15:11;;;;;;;4.47;4.17;;;;;;;36.07;35.92;100265.11;1782115;79;21505;-63
2021/07/13 07:17:53;;;;;;;4.50;4.10;;;;;;;36.16;35.97;100261.45;1793030;78;20946;-66
2021/07/13 07:20:26;;;;;;;3.75;3.50;;;;;;;36.15;34.98;100263.34;1788858;79;20904;-62
2021/07/13 07:23:04;;;;;;;14.50;8.45;;;;;;;36.09;34.22;100264.33;1795224;79;21151;-67
2021/07/13 07:25:32;;;;;;;5.60;4.67;;;;;;;36.13;32.61;100259.23;1788179;79;20992;-66
2021/07/13 07:28:03;;;;;;;9.43;6.87;;;;;;;36.11;32.25;100262.20;1781310;79;21532;-66
2021/07/13 07:30:30;;;;;;;4.12;3.72;;;;;;;36.15;32.02;100261.17;1776447;79;20902;-65
2021/07/13 07:33:02;;;;;;;8.60;4.47;;;;;;;36.25;31.94;100267.56;1792101;79;21022;-70
2021/07/13 07:35:28;;;;;;;4.47;4.08;;;;;;;36.16;32.47;100264.16;1783754;78;21696;-65
2021/07/13 07:37:56;;;;;;;9.65;5.40;;;;;;;36.06;33.24;100266.18;1779501;79;21589;-71
2021/07/13 07:40:23;;;;;;;8.20;5.03;;;;;;;35.98;32.40;100264.73;1789204;79;20980;-69
2021/07/13 07:42:52;;;;;;;8.70;5.35;;;;;;;35.88;32.95;100265.09;1803109;79;21483;-64
2021/07/13 07:45:20;;;;;;;4.80;4.30;;;;;;;35.78;32.68;100260.33;1791025;79;21058;-69
2021/07/13 07:47:49;;;;;;;6.37;3.72;;;;;;;35.78;32.39;100262.19;1791543;79;21087;-67
2021/07/13 07:50:17;;;;;;;7.40;3.60;;;;;;;35.63;32.47;100258.14;1785464;79;21500;-67
2021/07/13 07:52:44;;;;;;;3.50;3.30;;;;;;;35.56;32.33;100257.50;1783068;79;21612;-65
2021/07/13 07:55:12;;;;;;;8.63;3.58;;;;;;;35.39;32.78;100255.29;1776709;79;21590;-68
2021/07/13 07:57:39;;;;;;;9.10;4.72;;;;;;;35.37;32.86;100266.89;1794639;79;20919;-69
2021/07/13 08:00:08;;;;;;;40.60;17.30;;;;;;;35.29;32.10;100259.98;1790085;79;21128;-68
2021/07/13 08:02:38;;;;;;;30.12;14.70;;;;;;;35.10;32.42;100264.75;1788722;78;21298;-69
2021/07/13 08:05:06;;;;;;;27.82;15.15;;;;;;;34.77;33.31;100261.90;1791666;78;21050;-70
2021/07/13 08:07:35;;;;;;;24.57;12.30;;;;;;;34.57;34.15;100258.75;1784052;78;21024;-67
2021/07/13 08:10:05;;;;;;;13.88;7.65;;;;;;;34.63;34.69;100257.27;1795623;78;20960;-70
2021/07/13 08:12:34;;;;;;;25.72;13.58;;;;;;;34.81;34.12;100266.30;1796721;78;21052;-71
2021/07/13 08:15:04;;;;;;;19.12;9.73;;;;;;;34.76;33.81;100265.66;1791192;78;21524;-69
2021/07/13 08:17:30;;;;;;;16.05;9.33;;;;;;;34.74;34.28;100261.84;1789623;78;21001;-67
2021/07/13 08:19:58;;;;;;;31.20;15.30;;;;;;;34.84;33.95;100253.13;1750030;80;21025;-67
2021/07/13 08:22:29;;;;;;;14.65;6.67;;;;;;;34.94;33.71;100253.86;1748481;80;22113;-75
2021/07/13 08:24:56;;;;;;;4.25;3.85;;;;;;;35.09;33.18;100250.93;1734675;82;21923;-71
2021/07/13 08:27:23;;;;;;;3.55;3.25;;;;;;;35.16;31.92;100253.50;1720990;82;20997;-66
2021/07/13 08:29:51;;;;;;;4.75;3.00;;;;;;;35.14;31.36;100251.56;1757058;80;21097;-78
2021/07/13 08:32:18;;;;;;;2.70;2.50;;;;;;;35.10;30.28;100253.93;1766843;80;21025;-69
2021/07/13 08:34:45;;;;;;;3.87;2.90;;;;;;;34.90;30.61;100248.63;1758413;80;21025;-73
2021/07/13 08:37:14;;;;;;;3.30;3.00;;;;;;;34.63;30.88;100248.34;1740928;80;21107;-73
2021/07/13 08:39:44;;;;;;;9.38;4.03;;;;;;;34.40;31.75;100250.53;1757020;81;20931;-68
2021/07/13 08:42:10;;;;;;;;;;;;;;;34.25;32.42;100244.24;1734798;81;21381;-68
2021/07/13 08:44:37;;;;;;;;;;;;;;;34.16;32.25;100244.30;1758578;80;20340;-67
2021/07/13 08:47:04;;;;;;;;;;;;;;;34.07;32.03;100256.52;1764631;80;20098;-68
2021/07/13 08:49:31;;;;;;;;;;;;;;;33.88;32.62;100250.93;1761125;80;21108;-67
2021/07/13 08:52:00;;;;;;;;;;;;;;;33.77;31.87;100246.59;1765712;80;20213;-67
2021/07/13 08:54:27;;;;;;;;;;;;;;;33.72;31.97;100249.69;1761614;80;20408;-67
2021/07/13 08:56:54;;;;;;;;;;;;;;;33.65;32.06;100241.69;1754316;80;20202;-67
2021/07/13 08:59:21;;;;;;;;;;;;;;;33.62;33.02;100243.50;1754597;81;20412;-66
2021/07/13 09:01:48;;;;;;;;;;;;;;;33.64;32.45;100237.87;1756989;80;20740;-67
2021/07/13 09:04:15;;;;;;;;;;;;;;;33.68;32.73;100240.41;1742694;81;20595;-68
2021/07/13 09:06:55;;;;;;;;;;;;;;;33.65;30.69;100241.69;1731735;81;20473;-67
2021/07/13 09:09:29;;;;;;;;;;;;;;;33.52;31.00;100245.97;1720890;81;20098;-68
2021/07/13 09:12:15;;;;;;;;;;;;;;;33.41;31.81;100243.52;1721578;81;20152;-65
2021/07/13 09:14:57;;;;;;;;;;;;;;;33.35;31.41;100241.73;1734098;81;21090;-65
2021/07/13 09:17:40;;;;;;;;;;;;;;;33.24;30.78;100241.66;1744111;80;21031;-66
2021/07/13 09:20:21;;;;;;;;;;;;;;;33.08;31.04;100241.27;1738766;80;20400;-63
2021/07/13 09:23:04;;;;;;;;;;;;;;;32.95;30.01;100233.86;1743836;80;20166;-65
2021/07/13 09:25:40;;;;;;;;;;;;;;;32.84;30.99;100240.02;1735962;82;20434;-61
2021/07/13 09:28:07;;;;;;;;;;;;;;;32.78;31.71;100256.60;1743031;82;21139;-67
2021/07/13 09:30:34;;;;;;;;;;;;;;;32.63;32.05;100241.29;1742637;80;20159;-67
2021/07/13 09:33:15;;;;;;;;;;;;;;;32.56;32.91;100240.01;1739535;80;20185;-66
2021/07/13 09:36:02;;;;;;;;;;;;;;;32.51;33.23;100247.12;1755850;80;20082;-65
2021/07/13 09:38:31;;;;;;;;;;;;;;;32.39;33.25;100237.07;1760168;80;20196;-67
2021/07/13 09:41:05;;;;;;;;;;;;;;;32.32;32.73;100238.21;1748734;80;20832;-65
2021/07/13 09:43:52;;;;;;;;;;;;;;;32.24;33.28;100240.67;1743672;80;20143;-67
2021/07/13 09:46:27;;;;;;;;;;;;;;;32.16;33.25;100249.00;1744968;80;20096;-67
2021/07/13 09:49:15;;;;;;;;;;;;;;;32.03;32.46;100243.20;1721583;81;20098;-61
2021/07/13 09:52:03;;;;;;;;;;;;;;;31.95;32.35;100245.38;1733439;81;20127;-67
2021/07/13 09:54:36;;;;;;;;;;;;;;;31.90;32.51;100241.17;1715348;82;20154;-65
2021/07/13 09:57:06;;;;;;;;;;;;;;;31.86;33.32;100242.64;1721420;82;20525;-65
2021/07/13 09:59:34;;;;;;;;;;;;;;;31.80;33.46;100248.39;1723577;81;20521;-68
2021/07/13 10:02:04;;;;;;;;;;;;;;;31.71;33.99;100233.02;1717057;81;20523;-66
2021/07/13 10:04:32;;;;;;;;;;;;;;;31.68;34.40;100238.84;1717689;81;20126;-69
2021/07/13 10:07:07;;;;;;;;;;;;;;;31.69;34.71;100227.02;1727300;81;20155;-65
2021/07/13 10:09:37;;;;;;;;;;;;;;;31.70;34.41;100239.97;1731966;81;20130;-65
2021/07/13 10:12:09;;;;;;;;;;;;;;;31.65;34.51;100249.19;1735867;82;20392;-67
2021/07/13 10:14:39;;;;;;;;;;;;;;;31.59;33.56;100236.07;1736296;82;20090;-69
2021/07/13 10:17:09;;;;;;;;;;;;;;;31.55;34.26;100232.19;1736506;82;20146;-69
2021/07/13 10:20:00;;;;;;;;;;;;;;;31.55;34.03;100237.58;1735470;82;20148;-72
2021/07/13 10:22:26;;;;;;;;;;;;;;;31.52;33.55;100239.88;1733624;82;20134;-69
2021/07/13 10:24:56;;;;;;;;;;;;;;;31.44;33.28;100237.74;1735843;82;20122;-72
2021/07/13 10:27:36;;;;;;;;;;;;;;;31.39;33.80;100230.84;1736538;82;20227;-71
2021/07/13 10:30:08;;;;;;;;;;;;;;;31.36;33.96;100242.03;1736318;82;20153;-70
2021/07/13 10:32:43;;;;;;;;;;;;;;;31.33;33.77;100229.53;1727438;81;22082;-70
2021/07/13 10:35:22;;;;;;;;;;;;;;;31.29;33.89;100228.31;1736966;82;20126;-66
2021/07/13 10:37:47;;;;;;;;;;;;;;;31.29;34.46;100229.66;1735280;82;20149;-68
2021/07/13 10:40:28;;;;;;;;;;;;;;;31.30;34.09;100233.48;1715925;82;20093;-68
2021/07/13 10:42:57;;;;;;;;;;;;;;;31.23;34.46;100233.20;1714665;82;20100;-65
2021/07/13 10:45:27;;;;;;;;;;;;;;;31.18;34.91;100226.33;1736789;82;21109;-68
2021/07/13 10:47:57;;;;;;;;;;;;;;;31.21;35.10;100227.22;1736799;82;20095;-67
2021/07/13 10:50:31;;;;;;;;;;;;;;;31.24;35.39;100242.41;1736280;82;20082;-67
2021/07/13 10:53:03;;;;;;;;;;;;;;;31.25;35.11;100221.19;1736447;81;20246;-70
2021/07/13 10:55:33;;;;;;;;;;;;;;;31.25;34.53;100223.05;1754557;81;20087;-65
2021/07/13 10:58:15;;;;;;;;;;;;;;;31.22;34.51;100222.14;1752636;81;21114;-64
2021/07/13 11:00:58;;;;;;;;;;;;;;;31.18;35.26;100214.22;1744383;81;20114;-70
2021/07/13 11:03:36;;;;;;;;;;;;;;;31.18;35.88;100219.09;1743497;81;20103;-71
2021/07/13 11:06:18;;;;;;;;;;;;;;;31.23;34.99;100226.48;1742326;81;20143;-64
2021/07/13 11:08:56;;;;;;;;;;;;;;;31.22;35.37;100220.80;1740589;81;20091;-71
2021/07/13 11:11:24;;;;;;;;;;;;;;;31.22;34.49;100227.52;1752674;81;20692;-64
2021/07/13 11:13:52;;;;;;;;;;;;;;;31.20;35.03;100213.45;1750793;81;20135;-73
2021/07/13 11:16:24;;;;;;;;;;;;;;;31.14;35.37;100214.66;1751770;81;20144;-71
2021/07/13 11:18:54;;;;;;;;;;;;;;;31.13;35.56;100213.52;1746628;81;20186;-67
2021/07/13 11:21:25;;;;;;;;;;;;;;;31.11;36.21;100237.92;1742074;81;20150;-69
2021/07/13 11:23:55;;;;;;;;;;;;;;;31.10;35.55;100213.41;1747367;81;20119;-67
2021/07/13 11:26:23;;;;;;;;;;;;;;;31.11;35.28;100212.36;1745391;81;20442;-64
2021/07/13 11:28:58;;;;;;;;;;;;;;;31.11;35.49;100204.29;1755028;81;20096;-61
2021/07/13 11:31:29;;;;;;;;;;;;;;;31.13;35.04;100206.28;1754850;81;20118;-69
2021/07/13 11:34:03;;;;;;;;;;;;;;;31.16;33.86;100218.47;1744177;82;20189;-62
2021/07/13 11:36:40;;;;;;;;;;;;;;;31.16;34.27;100207.19;1750508;81;21284;-68
2021/07/13 11:39:12;;;;;;;;;;;;;;;31.13;34.07;100216.22;1750108;81;20123;-64
2021/07/13 11:41:40;;;;;;;;;;;;;;;31.12;34.67;100207.80;1754131;81;20088;-68
2021/07/13 11:44:09;;;;;;;;;;;;;;;31.13;34.51;100210.83;1756133;81;20154;-67
2021/07/13 11:46:39;;;;;;;;;;;;;;;31.14;34.88;100216.00;1746579;81;20107;-67
2021/07/13 11:49:10;;;;;;;;;;;;;;;31.15;35.15;100215.48;1758144;81;21845;-63
2021/07/13 11:51:45;;;;;;;;;;;;;;;31.15;35.29;100212.79;1749591;81;20086;-70
2021/07/13 11:54:14;;;;;;;;;;;;;;;31.16;34.86;100198.30;1743031;82;20087;-66
2021/07/13 11:56:45;;;;;;;;;;;;;;;31.21;34.69;100200.31;1745781;81;20378;-62
2021/07/13 11:59:16;;;;;;;;;;;;;;;31.24;33.67;100214.68;1749120;81;20095;-68
2021/07/13 12:01:56;;;;;;;;;;;;;;;31.24;32.65;100209.30;1720122;81;22696;-61
2021/07/13 12:04:23;;;;;;;;;;;;;;;31.25;32.86;100212.30;1743613;81;20123;-66
2021/07/13 12:06:52;;;;;;;;;;;;;;;31.23;33.33;100200.92;1742930;81;20563;-65
2021/07/13 12:09:27;;;;;;;;;;;;;;;31.22;33.80;100208.17;1747367;81;20194;-63
2021/07/13 12:11:56;;;;;;;;;;;;;;;31.22;33.69;100204.13;1747686;81;20091;-65
2021/07/13 12:14:24;;;;;;;;;;;;;;;31.22;33.59;100202.78;1742383;81;21294;-64
2021/07/13 12:16:54;;;;;;;;;;;;;;;31.21;33.76;100205.69;1741588;81;20171;-68
2021/07/13 12:19:21;;;;;;;;;;;;;;;31.20;33.08;100198.14;1747149;81;20108;-64
2021/07/13 12:21:58;;;;;;;;;;;;;;;31.20;33.42;100208.08;1750801;81;20110;-64
2021/07/13 12:24:36;;;;;;;;;;;;;;;31.21;33.79;100199.79;1743154;81;20147;-62
2021/07/13 12:27:06;;;;;;;;;;;;;;;31.22;33.69;100204.13;1744251;81;21362;-67
2021/07/13 12:29:43;;;;;;;;;;;;;;;31.27;33.38;100196.76;1740729;81;20115;-65
2021/07/13 12:32:27;;;;;;;;;;;;;;;31.31;33.55;100190.73;1738702;81;20119;-68
2021/07/13 12:34:54;;;;;;;;;;;;;;;31.34;34.25;100188.95;1735998;82;20126;-68
2021/07/13 12:37:29;;;;;;;;;;;;;;;31.39;33.31;100190.99;1740307;82;20225;-69
2021/07/13 12:40:09;;;;;;;;;;;;;;;31.38;33.08;100187.48;1743009;81;20488;-68
2021/07/13 12:42:46;;;;;;;;;;;;;;;31.33;33.14;100185.95;1726855;81;20135;-65
2021/07/13 12:45:17;;;;;;;;;;;;;;;31.28;33.73;100174.19;1753699;81;20406;-70
2021/07/13 12:47:48;;;;;;;;;;;;;;;31.28;34.24;100172.84;1744497;81;20103;-64
2021/07/13 12:50:22;;;;;;;;;;;;;;;31.30;33.77;100184.22;1739575;81;20134;-68
2021/07/13 12:53:05;;;;;;;;;;;;;;;31.28;33.73;100175.53;1737525;81;20890;-66
2021/07/13 12:55:54;;;;;;;;;;;;;;;31.29;33.37;100178.53;1736597;81;20087;-64
2021/07/13 12:58:30;;;;;;;;;;;;;;;31.26;33.88;100175.75;1738154;81;20103;-66
2021/07/13 13:01:00;;;;;;;;;;;;;;;31.20;34.39;100173.93;1738504;81;20103;-67
2021/07/13 13:03:50;;;;;;;;;;;;;;;31.16;33.99;100175.44;1750867;80;20103;-70
2021/07/13 13:06:12;;;;;;;;;;;;;;;31.12;34.32;100173.69;1749974;81;21138;-64
2021/07/13 13:08:43;;;;;;;;;;;;;;;31.10;34.41;100168.19;1744412;81;20086;-68
2021/07/13 13:11:23;;;;;;;;;;;;;;;31.08;35.04;100164.38;1753251;80;20405;-68
2021/07/13 13:14:01;;;;;;;;;;;;;;;31.10;34.84;100161.47;1724833;81;20086;-71
2021/07/13 13:16:38;;;;;;;;;;;;;;;31.10;34.84;100159.60;1752864;81;20144;-69
2021/07/13 13:19:08;;;;;;;;;;;;;;;31.12;34.66;100158.90;1755894;80;22146;-68
2021/07/13 13:21:48;;;;;;;;;;;;;;;31.14;35.41;100163.55;1756797;81;20102;-72
2021/07/13 13:24:17;;;;;;;;;;;;;;;31.18;35.02;100157.21;1759781;80;20195;-62
2021/07/13 13:26:46;;;;;;;;;;;;;;;31.21;35.29;100153.23;1757773;81;20126;-73
2021/07/13 13:29:14;;;;;;;;;;;;;;;31.22;35.29;100154.36;1765842;80;20518;-69
2021/07/13 13:31:43;;;;;;;;;;;;;;;31.21;35.42;100153.23;1768515;80;21133;-71
2021/07/13 13:34:11;;;;;;;;;;;;;;;31.20;35.97;100161.82;1757263;80;20098;-73
2021/07/13 13:36:42;;;;;;;;;;;;;;;31.21;35.38;100160.78;1759803;80;20106;-70
2021/07/13 13:41:37;;;;;;;;;;;;;;;31.15;35.63;100147.70;1762465;80;20129;-69
2021/07/13 13:44:04;;;;;;;;;;;;;;;31.13;35.52;100148.96;1756638;81;21106;-70
2021/07/13 13:46:31;;;;;;;;;;;;;;;31.10;35.61;100147.50;1759123;81;20135;-73
2021/07/13 13:48:57;;;;;;;;;;;;;;;31.10;35.07;100148.02;1761830;80;20106;-67
2021/07/13 13:51:24;;;;;;;;;;;;;;;31.08;35.20;100149.58;1763772;80;20151;-71
2021/07/13 13:53:51;;;;;;;;;;;;;;;31.07;35.22;100150.62;1760227;80;20094;-71
2021/07/13 13:56:24;;;;;;;;;;;;;;;31.07;35.28;100153.83;1757220;80;21076;-68
2021/07/13 13:58:46;;;;;;;;;;;;;;;31.05;35.60;100151.88;1754536;80;20157;-63
